createdAt,value
2023-07-07T00:00:31.374Z,11.10
2023-07-07T00:03:19.085Z,9.40
2023-07-07T00:05:46.924Z,9.90
2023-07-07T00:08:15.063Z,13.10
2023-07-07T00:10:44.086Z,9.20
2023-07-07T00:13:12.928Z,8.90
2023-07-07T00:15:45.429Z,8.50
2023-07-07T00:18:15.501Z,10.40
2023-07-07T00:20:43.364Z,8.90
2023-07-07T00:23:13.588Z,10.10
2023-07-07T00:25:41.522Z,13.30
2023-07-07T00:28:09.146Z,10.60
2023-07-07T00:30:36.803Z,9.30
2023-07-07T00:33:04.618Z,8.00
2023-07-07T00:35:32.636Z,7.60
2023-07-07T00:38:00.268Z,10.30
2023-07-07T00:40:28.227Z,9.20
2023-07-07T00:42:56.162Z,9.60
2023-07-07T00:45:23.763Z,7.60
2023-07-07T00:47:58.035Z,9.30
2023-07-07T00:50:28.064Z,7.60
2023-07-07T00:52:55.716Z,8.70
2023-07-07T00:55:39.741Z,12.50
2023-07-07T00:58:09.874Z,7.00
2023-07-07T01:00:38.564Z,8.30
2023-07-07T01:03:12.099Z,9.20
2023-07-07T01:05:40.000Z,7.10
2023-07-07T01:08:08.820Z,8.80
2023-07-07T01:10:41.345Z,8.40
2023-07-07T01:13:09.898Z,10.50
2023-07-07T01:15:44.410Z,9.00
2023-07-07T01:18:30.422Z,8.20
2023-07-07T01:21:13.754Z,6.40
2023-07-07T01:23:59.689Z,12.00
2023-07-07T01:26:33.826Z,7.20
2023-07-07T01:29:16.138Z,8.90
2023-07-07T01:31:47.212Z,8.00
2023-07-07T01:34:15.655Z,9.90
2023-07-07T01:36:43.637Z,8.90
2023-07-07T01:39:12.646Z,8.40
2023-07-07T01:41:55.999Z,7.90
2023-07-07T01:44:43.082Z,7.50
2023-07-07T01:47:13.236Z,9.10
2023-07-07T01:50:03.612Z,7.10
2023-07-07T01:52:37.809Z,7.00
2023-07-07T01:55:12.736Z,6.50
2023-07-07T01:57:40.829Z,8.90
2023-07-07T02:00:08.980Z,9.10
2023-07-07T02:02:36.708Z,9.60
2023-07-07T02:05:04.945Z,6.40
2023-07-07T02:07:32.685Z,7.10
2023-07-07T02:10:00.386Z,10.40
2023-07-07T02:12:28.196Z,8.20
2023-07-07T02:14:55.861Z,7.60
2023-07-07T02:17:25.847Z,6.80
2023-07-07T02:19:53.926Z,8.20
2023-07-07T02:22:21.543Z,8.80
2023-07-07T02:24:49.198Z,6.10
2023-07-07T02:27:16.804Z,7.70
2023-07-07T02:29:44.435Z,7.30
2023-07-07T02:32:12.076Z,7.50
2023-07-07T02:34:41.373Z,8.50
2023-07-07T02:37:14.182Z,10.10
2023-07-07T02:39:44.066Z,8.30
2023-07-07T02:42:12.154Z,8.00
2023-07-07T02:44:39.962Z,11.50
2023-07-07T02:47:10.478Z,9.60
2023-07-07T02:49:38.214Z,8.00
2023-07-07T02:52:06.668Z,8.60
2023-07-07T02:54:34.429Z,8.00
2023-07-07T02:57:03.072Z,7.60
2023-07-07T02:59:30.929Z,10.70
2023-07-07T03:01:58.850Z,8.90
2023-07-07T03:04:28.234Z,9.50
2023-07-07T03:06:55.930Z,8.90
2023-07-07T03:09:23.699Z,8.30
2023-07-07T03:11:51.426Z,12.40
2023-07-07T03:14:19.527Z,6.20
2023-07-07T03:16:53.706Z,7.80
2023-07-07T03:19:23.891Z,9.10
2023-07-07T03:21:54.599Z,8.10
2023-07-07T03:24:22.297Z,8.00
2023-07-07T03:26:49.917Z,7.10
2023-07-07T03:29:17.719Z,7.20
2023-07-07T03:31:45.329Z,9.70
2023-07-07T03:34:13.002Z,10.70
2023-07-07T03:36:40.777Z,9.00
2023-07-07T03:39:08.795Z,8.00
2023-07-07T03:41:36.612Z,10.90
2023-07-07T03:44:04.670Z,8.30
2023-07-07T03:46:32.363Z,11.60
2023-07-07T03:49:00.347Z,7.80
2023-07-07T03:51:30.052Z,9.00
2023-07-07T03:53:57.888Z,12.50
2023-07-07T03:56:27.815Z,11.40
2023-07-07T03:58:55.633Z,11.70
2023-07-07T04:01:23.440Z,10.20
2023-07-07T04:03:51.273Z,9.90
2023-07-07T04:06:19.324Z,12.90
2023-07-07T04:08:47.074Z,9.80
2023-07-07T04:11:17.063Z,11.40
2023-07-07T04:13:48.212Z,11.90
2023-07-07T04:18:45.938Z,11.90
2023-07-07T04:21:19.731Z,11.20
2023-07-07T04:23:48.690Z,11.10
2023-07-07T04:26:17.398Z,11.20
2023-07-07T04:28:45.114Z,10.00
2023-07-07T04:31:13.180Z,9.90
2023-07-07T04:33:41.441Z,13.20
2023-07-07T04:36:10.294Z,9.00
2023-07-07T04:38:38.007Z,10.10
2023-07-07T04:41:07.663Z,10.30
2023-07-07T04:43:35.818Z,10.90
2023-07-07T04:46:03.841Z,15.40
2023-07-07T04:48:32.256Z,13.00
2023-07-07T04:51:04.209Z,12.50
2023-07-07T04:53:35.282Z,11.90
2023-07-07T04:56:07.372Z,12.00
2023-07-07T04:58:35.273Z,10.50
2023-07-07T05:01:06.046Z,13.40
2023-07-07T05:03:34.971Z,10.90
2023-07-07T05:06:04.442Z,10.10
2023-07-07T05:08:36.790Z,13.20
2023-07-07T05:11:05.036Z,12.00
2023-07-07T05:13:33.233Z,12.50
2023-07-07T05:16:07.037Z,11.90
2023-07-07T05:18:34.746Z,10.40
2023-07-07T05:21:06.092Z,11.70
2023-07-07T05:23:35.756Z,10.80
2023-07-07T05:26:03.793Z,11.70
2023-07-07T05:28:31.635Z,11.00
2023-07-07T05:30:59.762Z,11.70
2023-07-07T05:33:28.998Z,12.90
2023-07-07T05:35:57.856Z,10.80
2023-07-07T05:38:26.130Z,11.20
2023-07-07T05:40:54.276Z,10.70
2023-07-07T05:43:22.839Z,9.70
2023-07-07T05:46:06.066Z,8.00
2023-07-07T05:48:33.781Z,6.10
2023-07-07T05:51:02.622Z,7.20
2023-07-07T05:53:30.639Z,9.20
2023-07-07T05:56:10.737Z,10.40
2023-07-07T05:58:42.428Z,8.50
2023-07-07T06:01:15.089Z,8.10
2023-07-07T06:03:44.456Z,7.20
2023-07-07T06:06:12.763Z,8.40
2023-07-07T06:08:41.361Z,7.70
2023-07-07T06:11:09.323Z,7.00
2023-07-07T06:13:37.290Z,8.80
2023-07-07T06:16:06.669Z,8.20
2023-07-07T06:18:34.452Z,7.50
2023-07-07T06:21:03.157Z,9.20
2023-07-07T06:23:31.996Z,7.00
2023-07-07T06:25:59.774Z,7.80
2023-07-07T06:28:27.988Z,7.40
2023-07-07T06:30:55.805Z,9.10
2023-07-07T06:33:23.739Z,7.40
2023-07-07T06:35:52.193Z,7.40
2023-07-07T06:38:20.003Z,7.20
2023-07-07T06:40:48.760Z,7.90
2023-07-07T06:43:20.206Z,7.30
2023-07-07T06:45:54.929Z,6.00
2023-07-07T06:48:22.764Z,5.60
2023-07-07T06:50:50.643Z,5.80
2023-07-07T06:53:18.338Z,10.00
2023-07-07T06:55:46.303Z,7.10
2023-07-07T06:58:14.407Z,6.00
2023-07-07T07:00:42.820Z,5.30
2023-07-07T07:03:10.857Z,4.80
2023-07-07T07:05:39.539Z,5.70
2023-07-07T07:08:07.254Z,6.30
2023-07-07T07:10:35.212Z,4.80
2023-07-07T07:13:02.949Z,4.40
2023-07-07T07:15:31.365Z,4.10
2023-07-07T07:17:59.402Z,5.20
2023-07-07T07:20:27.124Z,4.40
2023-07-07T07:22:54.809Z,5.50
2023-07-07T07:25:22.493Z,5.40
2023-07-07T07:27:50.293Z,4.50
2023-07-07T07:30:17.971Z,7.70
2023-07-07T07:32:45.697Z,4.20
2023-07-07T07:35:13.693Z,5.70
2023-07-07T07:37:41.472Z,6.80
2023-07-07T07:40:09.942Z,3.80
2023-07-07T07:42:37.629Z,4.50
2023-07-07T07:45:05.963Z,6.10
2023-07-07T07:47:35.129Z,5.90
2023-07-07T07:50:03.229Z,5.30
2023-07-07T07:52:30.867Z,4.50
2023-07-07T07:54:58.635Z,4.00
2023-07-07T07:57:26.245Z,3.70
2023-07-07T07:59:53.914Z,4.60
2023-07-07T08:02:21.752Z,3.70
2023-07-07T08:04:49.473Z,4.20
2023-07-07T08:07:17.378Z,7.00
2023-07-07T08:09:45.223Z,4.60
2023-07-07T08:12:12.842Z,4.90
2023-07-07T08:14:40.666Z,3.90
2023-07-07T08:17:09.887Z,4.50
2023-07-07T08:19:38.829Z,5.20
2023-07-07T08:22:12.340Z,4.80
2023-07-07T08:24:41.876Z,4.20
2023-07-07T08:29:40.271Z,5.30
2023-07-07T08:32:11.982Z,5.20
2023-07-07T08:34:53.800Z,5.70
2023-07-07T08:37:24.028Z,6.70
2023-07-07T08:39:51.765Z,3.40
2023-07-07T08:42:37.171Z,4.10
2023-07-07T08:45:16.071Z,4.20
2023-07-07T08:47:47.267Z,5.30
2023-07-07T08:50:31.229Z,3.40
2023-07-07T08:53:17.762Z,5.60
2023-07-07T08:55:48.248Z,5.00
2023-07-07T08:58:54.038Z,3.90
2023-07-07T09:01:36.823Z,4.20
2023-07-07T09:04:29.282Z,3.40
2023-07-07T09:07:09.271Z,4.50
2023-07-07T09:09:46.849Z,3.40
2023-07-07T09:12:44.218Z,2.60
2023-07-07T09:15:21.427Z,3.70
2023-07-07T09:17:55.814Z,6.60
2023-07-07T09:20:23.929Z,3.80
2023-07-07T09:23:03.904Z,5.60
2023-07-07T09:25:49.123Z,3.70
2023-07-07T09:28:18.048Z,5.20
2023-07-07T09:30:59.832Z,3.70
2023-07-07T09:33:27.753Z,3.70
2023-07-07T09:36:12.808Z,5.40
2023-07-07T09:38:56.016Z,3.60
2023-07-07T09:42:19.304Z,5.70
2023-07-07T09:45:44.552Z,3.00
2023-07-07T09:48:36.368Z,4.40
2023-07-07T09:51:19.739Z,3.60
2023-07-07T09:53:48.049Z,4.00
2023-07-07T09:56:22.355Z,5.40
2023-07-07T09:59:12.023Z,8.90
2023-07-07T10:01:46.054Z,3.90
2023-07-07T10:04:16.500Z,3.60
2023-07-07T10:06:50.941Z,3.00
2023-07-07T10:09:18.764Z,3.50
2023-07-07T10:14:17.923Z,3.80
2023-07-07T10:17:10.848Z,3.30
2023-07-07T10:19:45.867Z,4.00
2023-07-07T10:22:14.610Z,4.00
2023-07-07T10:24:45.364Z,3.70
2023-07-07T10:27:15.113Z,3.30
2023-07-07T10:29:43.971Z,6.30
2023-07-07T10:32:16.272Z,4.60
2023-07-07T10:34:48.340Z,3.80
2023-07-07T10:37:20.735Z,3.60
2023-07-07T10:39:56.648Z,3.30
2023-07-07T10:42:25.430Z,3.40
2023-07-07T10:44:58.210Z,5.00
2023-07-07T10:47:36.224Z,3.70
2023-07-07T10:50:05.955Z,3.50
2023-07-07T10:56:02.028Z,3.60
2023-07-07T10:58:38.996Z,4.90
2023-07-07T11:01:21.702Z,3.70
2023-07-07T11:04:08.088Z,4.20
2023-07-07T11:06:42.137Z,3.70
2023-07-07T11:09:27.001Z,3.00
2023-07-07T11:12:06.768Z,2.90
2023-07-07T11:14:59.810Z,4.50
2023-07-07T11:17:46.201Z,3.80
2023-07-07T11:20:41.775Z,3.90
2023-07-07T11:23:44.609Z,4.00
2023-07-07T11:26:28.116Z,5.20
2023-07-07T11:29:16.953Z,3.80
2023-07-07T11:31:51.880Z,4.70
2023-07-07T11:34:54.174Z,5.20
2023-07-07T11:37:57.145Z,3.80
2023-07-07T11:40:43.763Z,3.50
2023-07-07T11:43:43.978Z,2.70
2023-07-07T11:46:17.133Z,3.70
2023-07-07T11:48:51.443Z,3.30
2023-07-07T11:51:47.011Z,3.10
2023-07-07T11:54:22.712Z,3.60
2023-07-07T11:57:18.257Z,3.70
2023-07-07T12:00:19.571Z,4.00
2023-07-07T12:03:02.971Z,3.30
2023-07-07T12:05:33.976Z,3.60
2023-07-07T12:08:10.557Z,3.30
2023-07-07T12:10:47.908Z,3.40
2023-07-07T12:13:24.374Z,3.10
2023-07-07T12:16:00.494Z,7.50
2023-07-07T12:18:35.451Z,4.80
2023-07-07T12:21:11.482Z,3.30
2023-07-07T12:23:39.440Z,5.40
2023-07-07T12:26:25.699Z,4.00
2023-07-07T12:28:56.202Z,3.60
2023-07-07T12:31:24.677Z,3.90
2023-07-07T12:33:53.041Z,4.50
2023-07-07T12:36:21.660Z,3.80
2023-07-07T12:38:50.693Z,4.20
2023-07-07T12:41:22.427Z,3.60
2023-07-07T12:43:52.180Z,3.60
2023-07-07T12:46:23.876Z,3.20
2023-07-07T12:48:55.862Z,4.50
2023-07-07T12:51:25.283Z,3.10
2023-07-07T12:53:54.168Z,3.30
2023-07-07T12:56:24.119Z,3.80
2023-07-07T12:58:59.062Z,3.30
2023-07-07T13:01:35.355Z,3.30
2023-07-07T13:04:06.044Z,4.70
2023-07-07T13:06:38.104Z,4.60
2023-07-07T13:09:14.935Z,3.00
2023-07-07T13:11:49.029Z,3.20
2023-07-07T13:14:40.568Z,3.10
2023-07-07T13:17:13.054Z,3.40
2023-07-07T13:19:44.785Z,2.50
2023-07-07T13:24:42.937Z,3.10
2023-07-07T13:27:20.121Z,4.50
2023-07-07T13:29:47.884Z,3.50
2023-07-07T13:32:26.449Z,4.10
2023-07-07T13:34:54.502Z,4.10
2023-07-07T13:37:22.127Z,3.30
2023-07-07T13:39:49.790Z,3.30
2023-07-07T13:42:26.279Z,3.20
2023-07-07T13:44:58.570Z,3.90
2023-07-07T13:47:27.358Z,2.90
2023-07-07T13:49:58.590Z,3.00
2023-07-07T13:52:27.989Z,2.90
2023-07-07T13:54:57.105Z,3.40
2023-07-07T13:57:35.602Z,4.00
2023-07-07T14:00:03.701Z,3.60
2023-07-07T14:02:31.508Z,3.50
2023-07-07T14:05:06.055Z,4.50
2023-07-07T14:07:37.507Z,3.20
2023-07-07T14:10:23.734Z,3.30
2023-07-07T14:12:51.464Z,3.70
2023-07-07T14:15:19.432Z,3.80
2023-07-07T14:20:20.214Z,4.00
2023-07-07T14:22:48.112Z,4.10
2023-07-07T14:25:17.535Z,3.60
2023-07-07T14:27:45.132Z,3.00
2023-07-07T14:30:24.247Z,2.70
2023-07-07T14:32:55.438Z,3.60
2023-07-07T14:35:32.184Z,3.00
2023-07-07T14:38:15.814Z,4.60
2023-07-07T14:40:45.126Z,5.20
2023-07-07T14:43:24.069Z,5.10
2023-07-07T14:45:54.541Z,4.40
2023-07-07T14:48:23.295Z,5.40
2023-07-07T14:50:51.351Z,2.90
2023-07-07T14:53:23.500Z,2.90
2023-07-07T14:55:52.756Z,3.00
2023-07-07T14:58:24.707Z,3.30
2023-07-07T15:00:53.641Z,3.60
2023-07-07T15:03:27.500Z,3.80
2023-07-07T15:06:08.294Z,3.20
2023-07-07T15:08:37.281Z,3.50
2023-07-07T15:11:07.145Z,4.90
2023-07-07T15:13:34.888Z,3.50
2023-07-07T15:16:03.743Z,3.00
2023-07-07T15:18:31.391Z,4.50
2023-07-07T15:20:59.082Z,4.00
2023-07-07T15:23:26.858Z,4.90
2023-07-07T15:25:54.475Z,4.50
2023-07-07T15:28:22.080Z,3.20
2023-07-07T15:30:49.991Z,4.30
2023-07-07T15:33:18.270Z,3.10
2023-07-07T15:35:46.012Z,3.20
2023-07-07T15:38:25.896Z,5.00
2023-07-07T15:40:53.649Z,4.90
2023-07-07T15:43:22.516Z,3.40
2023-07-07T15:45:54.619Z,3.50
2023-07-07T15:48:23.327Z,4.00
2023-07-07T15:50:51.161Z,4.30
2023-07-07T15:53:18.978Z,6.10
2023-07-07T15:55:46.609Z,5.20
2023-07-07T15:58:14.270Z,6.60
2023-07-07T16:00:43.170Z,5.70
2023-07-07T16:03:10.924Z,3.70
2023-07-07T16:05:38.788Z,3.70
2023-07-07T16:08:12.824Z,3.80
2023-07-07T16:10:40.521Z,3.40
2023-07-07T16:13:08.197Z,3.70
2023-07-07T16:15:36.074Z,2.90
2023-07-07T16:18:04.117Z,3.40
2023-07-07T16:20:31.773Z,4.00
2023-07-07T16:22:59.931Z,4.70
2023-07-07T16:25:28.204Z,4.20
2023-07-07T16:27:56.619Z,3.80
2023-07-07T16:30:33.402Z,4.70
2023-07-07T16:33:01.188Z,3.60
2023-07-07T16:35:29.142Z,4.90
2023-07-07T16:37:56.969Z,4.40
2023-07-07T16:40:31.222Z,3.20
2023-07-07T16:43:03.786Z,4.30
2023-07-07T16:45:32.202Z,3.80
2023-07-07T16:47:59.880Z,2.90
2023-07-07T16:50:28.336Z,3.90
2023-07-07T16:52:59.807Z,4.50
2023-07-07T16:55:27.728Z,3.40
2023-07-07T16:57:55.372Z,3.30
2023-07-07T17:00:24.801Z,5.30
2023-07-07T17:02:53.200Z,3.40
2023-07-07T17:05:23.189Z,3.20
2023-07-07T17:07:50.991Z,3.10
2023-07-07T17:10:38.914Z,3.30
2023-07-07T17:13:06.786Z,3.50
2023-07-07T17:15:34.551Z,3.00
2023-07-07T17:18:04.891Z,3.60
2023-07-07T17:20:34.208Z,3.40
2023-07-07T17:23:02.048Z,4.10
2023-07-07T17:25:31.006Z,4.50
2023-07-07T17:27:58.679Z,3.50
2023-07-07T17:30:32.102Z,3.50
2023-07-07T17:32:59.993Z,3.90
2023-07-07T17:35:27.820Z,3.30
2023-07-07T17:37:55.474Z,5.00
2023-07-07T17:40:37.918Z,3.40
2023-07-07T17:43:05.602Z,3.70
2023-07-07T17:45:33.526Z,3.80
2023-07-07T17:48:01.303Z,5.50
2023-07-07T17:50:45.140Z,5.10
2023-07-07T17:53:12.759Z,4.10
2023-07-07T17:55:40.885Z,4.40
2023-07-07T17:58:12.454Z,3.80
2023-07-07T18:00:41.294Z,4.10
2023-07-07T18:03:09.246Z,6.90
2023-07-07T18:05:37.028Z,6.30
2023-07-07T18:08:09.162Z,5.80
2023-07-07T18:10:36.819Z,6.20
2023-07-07T18:13:04.478Z,5.30
2023-07-07T18:15:32.140Z,4.20
2023-07-07T18:18:22.837Z,6.50
2023-07-07T18:21:23.296Z,5.50
2023-07-07T18:23:35.802Z,5.60
2023-07-07T18:26:03.556Z,6.50
2023-07-07T18:28:31.264Z,6.90
2023-07-07T18:30:59.467Z,8.70
2023-07-07T18:33:27.703Z,6.40
2023-07-07T18:35:55.469Z,8.50
2023-07-07T18:38:23.290Z,7.70
2023-07-07T18:40:51.284Z,11.00
2023-07-07T18:43:19.897Z,10.30
2023-07-07T18:45:47.618Z,10.80
2023-07-07T18:48:15.839Z,10.20
2023-07-07T18:50:43.824Z,10.30
2023-07-07T18:53:11.745Z,10.20
2023-07-07T18:55:46.286Z,13.80
2023-07-07T18:58:13.941Z,18.60
2023-07-07T19:00:42.662Z,24.90
2023-07-07T19:03:13.025Z,32.70
2023-07-07T19:05:41.028Z,32.80
2023-07-07T19:08:12.567Z,39.00
2023-07-07T19:10:41.464Z,39.60
2023-07-07T19:13:22.439Z,33.40
2023-07-07T19:15:52.833Z,47.00
2023-07-07T19:18:29.701Z,58.50
2023-07-07T19:20:57.631Z,61.50
2023-07-07T19:23:25.273Z,26.70
2023-07-07T19:25:52.936Z,21.80
2023-07-07T19:28:31.420Z,10.90
2023-07-07T19:30:59.350Z,13.30
2023-07-07T19:33:27.065Z,14.50
2023-07-07T19:35:58.134Z,15.00
2023-07-07T19:38:26.937Z,25.30
2023-07-07T19:40:59.335Z,50.50
2023-07-07T19:43:26.995Z,113.50
2023-07-07T19:45:58.363Z,125.10
2023-07-07T19:48:26.442Z,121.20
2023-07-07T19:50:56.505Z,130.90
2023-07-07T19:53:24.182Z,133.50
2023-07-07T19:55:56.536Z,123.50
2023-07-07T19:58:27.445Z,117.60
2023-07-07T20:00:55.063Z,95.20
2023-07-07T20:03:23.825Z,56.20
2023-07-07T20:05:51.583Z,29.50
2023-07-07T20:08:19.205Z,19.00
2023-07-07T20:10:46.856Z,31.00
2023-07-07T20:13:14.763Z,21.80
2023-07-07T20:15:42.668Z,11.50
2023-07-07T20:18:12.489Z,11.20
2023-07-07T20:20:40.146Z,10.40
2023-07-07T20:23:13.304Z,9.80
2023-07-07T20:25:41.272Z,13.50
2023-07-07T20:28:18.051Z,9.60
2023-07-07T20:30:45.837Z,8.90
2023-07-07T20:33:14.073Z,4.80
2023-07-07T20:35:41.803Z,9.20
2023-07-07T20:38:11.387Z,7.40
2023-07-07T20:40:40.298Z,5.40
2023-07-07T20:43:09.106Z,7.00
2023-07-07T20:45:37.481Z,5.30
2023-07-07T20:48:11.305Z,7.40
2023-07-07T20:50:39.122Z,7.80
2023-07-07T20:53:08.739Z,10.10
2023-07-07T20:55:36.412Z,6.80
2023-07-07T20:58:09.585Z,6.60
2023-07-07T21:00:37.864Z,6.70
2023-07-07T21:03:05.629Z,7.70
2023-07-07T21:05:33.715Z,6.50
2023-07-07T21:08:01.322Z,8.00
2023-07-07T21:10:33.715Z,7.70
2023-07-07T21:15:29.005Z,7.80
2023-07-07T21:17:56.665Z,7.00
2023-07-07T21:20:35.448Z,6.00
2023-07-07T21:25:33.036Z,6.90
2023-07-07T21:28:01.191Z,8.50
2023-07-07T21:30:29.002Z,9.90
2023-07-07T21:32:56.721Z,9.10
2023-07-07T21:35:24.700Z,8.00
2023-07-07T21:37:52.383Z,8.80
2023-07-07T21:40:21.782Z,8.50
2023-07-07T21:42:49.747Z,8.30
2023-07-07T21:45:20.118Z,7.70
2023-07-07T21:47:55.251Z,7.80
2023-07-07T21:50:24.374Z,7.70
2023-07-07T21:52:52.861Z,8.40
2023-07-07T21:55:21.198Z,7.10
2023-07-07T21:57:49.991Z,6.90
2023-07-07T22:00:26.434Z,7.20
2023-07-07T22:02:57.780Z,6.80
2023-07-07T22:05:27.512Z,11.60
2023-07-07T22:07:55.425Z,11.50
2023-07-07T22:10:42.052Z,7.50
2023-07-07T22:13:09.895Z,7.40
2023-07-07T22:15:38.892Z,8.30
2023-07-07T22:18:17.207Z,8.40
2023-07-07T22:21:05.229Z,8.80
2023-07-07T22:23:33.353Z,7.60
2023-07-07T22:26:01.291Z,9.90
2023-07-07T22:28:30.881Z,13.10
2023-07-07T22:30:59.661Z,8.00
2023-07-07T22:33:28.354Z,6.50
2023-07-07T22:35:56.331Z,7.10
2023-07-07T22:38:27.639Z,9.90
2023-07-07T22:40:56.952Z,7.50
2023-07-07T22:43:25.076Z,11.00
2023-07-07T22:46:00.105Z,13.50
2023-07-07T22:48:27.739Z,7.90
2023-07-07T22:50:55.342Z,7.30
2023-07-07T22:53:22.959Z,8.50
2023-07-07T22:55:50.587Z,9.70
2023-07-07T22:58:19.854Z,9.50
2023-07-07T23:00:47.850Z,9.20
2023-07-07T23:03:15.855Z,8.00
2023-07-07T23:05:44.366Z,11.30
2023-07-07T23:08:30.254Z,8.60
2023-07-07T23:10:58.032Z,8.10
2023-07-07T23:13:26.473Z,8.20
2023-07-07T23:15:54.109Z,8.20
2023-07-07T23:18:23.941Z,8.90
2023-07-07T23:20:51.550Z,8.30
2023-07-07T23:23:22.747Z,8.20
2023-07-07T23:25:58.839Z,9.30
2023-07-07T23:28:29.263Z,9.70
2023-07-07T23:31:05.349Z,8.70
2023-07-07T23:33:34.665Z,9.50
2023-07-07T23:36:03.935Z,7.70
2023-07-07T23:38:31.586Z,9.90
2023-07-07T23:40:59.787Z,9.20
2023-07-07T23:43:27.607Z,11.40
2023-07-07T23:45:55.207Z,8.80
2023-07-07T23:48:22.950Z,10.20
2023-07-07T23:50:53.458Z,10.30
2023-07-07T23:53:21.872Z,10.30
2023-07-07T23:55:50.142Z,10.70
2023-07-07T23:58:25.224Z,9.70
